sensor_id;sensor_type;location;lat;lon;timestamp;P1;durP1;ratioP1;P2;durP2;ratioP2
38455;SDS011;24237;50.106;20.014;2022-11-10T00:02:17;119.18;;;48.22;;
38455;SDS011;24237;50.106;20.014;2022-11-10T00:04:43;111.65;;;46.40;;
38455;SDS011;24237;50.106;20.014;2022-11-10T00:07:09;103.15;;;46.10;;
38455;SDS011;24237;50.106;20.014;2022-11-10T00:09:34;98.65;;;46.85;;
38455;SDS011;24237;50.106;20.014;2022-11-10T00:12:00;106.63;;;46.88;;
38455;SDS011;24237;50.106;20.014;2022-11-10T00:14:26;104.25;;;45.97;;
38455;SDS011;24237;50.106;20.014;2022-11-10T00:17:10;113.03;;;45.00;;
38455;SDS011;24237;50.106;20.014;2022-11-10T00:19:36;118.82;;;49.83;;
38455;SDS011;24237;50.106;20.014;2022-11-10T00:22:02;104.80;;;43.90;;
38455;SDS011;24237;50.106;20.014;2022-11-10T00:24:27;102.50;;;45.33;;
38455;SDS011;24237;50.106;20.014;2022-11-10T00:26:54;112.47;;;47.70;;
38455;SDS011;24237;50.106;20.014;2022-11-10T00:29:20;118.10;;;51.55;;
38455;SDS011;24237;50.106;20.014;2022-11-10T00:31:46;127.18;;;49.40;;
38455;SDS011;24237;50.106;20.014;2022-11-10T00:34:13;148.63;;;54.30;;
38455;SDS011;24237;50.106;20.014;2022-11-10T00:36:40;100.78;;;44.22;;
38455;SDS011;24237;50.106;20.014;2022-11-10T00:39:07;110.20;;;46.67;;
38455;SDS011;24237;50.106;20.014;2022-11-10T00:41:33;350.55;;;52.70;;
38455;SDS011;24237;50.106;20.014;2022-11-10T00:43:59;247.23;;;52.85;;
38455;SDS011;24237;50.106;20.014;2022-11-10T00:46:25;427.50;;;60.38;;
38455;SDS011;24237;50.106;20.014;2022-11-10T00:48:50;306.17;;;50.65;;
38455;SDS011;24237;50.106;20.014;2022-11-10T00:51:20;344.27;;;51.63;;
38455;SDS011;24237;50.106;20.014;2022-11-10T00:53:47;555.75;;;62.78;;
38455;SDS011;24237;50.106;20.014;2022-11-10T00:56:14;484.80;;;54.70;;
38455;SDS011;24237;50.106;20.014;2022-11-10T00:58:40;436.75;;;56.80;;
38455;SDS011;24237;50.106;20.014;2022-11-10T01:01:06;576.83;;;57.95;;
38455;SDS011;24237;50.106;20.014;2022-11-10T01:03:32;478.27;;;58.90;;
38455;SDS011;24237;50.106;20.014;2022-11-10T01:05:58;396.15;;;53.00;;
38455;SDS011;24237;50.106;20.014;2022-11-10T01:08:32;261.05;;;49.50;;
38455;SDS011;24237;50.106;20.014;2022-11-10T01:11:02;250.82;;;47.35;;
38455;SDS011;24237;50.106;20.014;2022-11-10T01:13:29;242.25;;;48.55;;
38455;SDS011;24237;50.106;20.014;2022-11-10T01:15:55;249.73;;;46.70;;
38455;SDS011;24237;50.106;20.014;2022-11-10T01:18:20;325.33;;;49.53;;
38455;SDS011;24237;50.106;20.014;2022-11-10T01:20:49;262.48;;;50.58;;
38455;SDS011;24237;50.106;20.014;2022-11-10T01:23:16;413.75;;;56.03;;
38455;SDS011;24237;50.106;20.014;2022-11-10T01:25:42;339.58;;;55.72;;
38455;SDS011;24237;50.106;20.014;2022-11-10T01:28:08;281.60;;;51.70;;
38455;SDS011;24237;50.106;20.014;2022-11-10T01:30:33;315.25;;;54.85;;
38455;SDS011;24237;50.106;20.014;2022-11-10T01:32:59;242.07;;;55.67;;
38455;SDS011;24237;50.106;20.014;2022-11-10T01:35:28;194.77;;;53.00;;
38455;SDS011;24237;50.106;20.014;2022-11-10T01:37:53;170.90;;;54.58;;
38455;SDS011;24237;50.106;20.014;2022-11-10T01:40:19;163.73;;;55.10;;
38455;SDS011;24237;50.106;20.014;2022-11-10T01:42:52;197.10;;;55.20;;
38455;SDS011;24237;50.106;20.014;2022-11-10T01:47:48;167.20;;;57.60;;
38455;SDS011;24237;50.106;20.014;2022-11-10T01:50:16;150.65;;;55.95;;
38455;SDS011;24237;50.106;20.014;2022-11-10T01:52:43;130.10;;;57.50;;
38455;SDS011;24237;50.106;20.014;2022-11-10T01:55:22;139.38;;;57.28;;
38455;SDS011;24237;50.106;20.014;2022-11-10T01:57:48;129.27;;;54.35;;
38455;SDS011;24237;50.106;20.014;2022-11-10T02:00:15;139.70;;;57.20;;
38455;SDS011;24237;50.106;20.014;2022-11-10T02:03:01;127.80;;;53.63;;
38455;SDS011;24237;50.106;20.014;2022-11-10T02:05:28;122.72;;;52.50;;
38455;SDS011;24237;50.106;20.014;2022-11-10T02:07:54;137.43;;;56.40;;
38455;SDS011;24237;50.106;20.014;2022-11-10T02:10:21;133.35;;;54.72;;
38455;SDS011;24237;50.106;20.014;2022-11-10T02:12:47;129.38;;;56.95;;
38455;SDS011;24237;50.106;20.014;2022-11-10T02:15:14;141.25;;;57.03;;
38455;SDS011;24237;50.106;20.014;2022-11-10T02:17:41;123.10;;;53.25;;
38455;SDS011;24237;50.106;20.014;2022-11-10T02:20:09;133.63;;;55.20;;
38455;SDS011;24237;50.106;20.014;2022-11-10T02:22:36;138.23;;;55.97;;
38455;SDS011;24237;50.106;20.014;2022-11-10T02:25:03;134.57;;;54.80;;
38455;SDS011;24237;50.106;20.014;2022-11-10T02:27:29;129.98;;;53.67;;
38455;SDS011;24237;50.106;20.014;2022-11-10T02:29:55;120.65;;;52.70;;
38455;SDS011;24237;50.106;20.014;2022-11-10T02:32:22;114.55;;;49.85;;
38455;SDS011;24237;50.106;20.014;2022-11-10T02:34:48;116.82;;;50.95;;
38455;SDS011;24237;50.106;20.014;2022-11-10T02:37:14;116.38;;;49.58;;
38455;SDS011;24237;50.106;20.014;2022-11-10T02:39:39;110.57;;;47.50;;
38455;SDS011;24237;50.106;20.014;2022-11-10T02:42:05;107.85;;;48.60;;
38455;SDS011;24237;50.106;20.014;2022-11-10T02:44:40;109.30;;;47.85;;
38455;SDS011;24237;50.106;20.014;2022-11-10T02:47:06;106.63;;;47.13;;
38455;SDS011;24237;50.106;20.014;2022-11-10T02:49:32;115.13;;;48.63;;
38455;SDS011;24237;50.106;20.014;2022-11-10T02:51:58;105.10;;;45.00;;
38455;SDS011;24237;50.106;20.014;2022-11-10T02:54:32;110.20;;;46.83;;
38455;SDS011;24237;50.106;20.014;2022-11-10T02:56:58;109.78;;;45.67;;
38455;SDS011;24237;50.106;20.014;2022-11-10T02:59:37;106.60;;;47.70;;
38455;SDS011;24237;50.106;20.014;2022-11-10T03:02:02;102.10;;;43.45;;
38455;SDS011;24237;50.106;20.014;2022-11-10T03:04:37;106.28;;;45.45;;
38455;SDS011;24237;50.106;20.014;2022-11-10T03:07:06;107.35;;;46.45;;
38455;SDS011;24237;50.106;20.014;2022-11-10T03:09:32;108.20;;;45.83;;
38455;SDS011;24237;50.106;20.014;2022-11-10T03:12:00;105.15;;;46.42;;
38455;SDS011;24237;50.106;20.014;2022-11-10T03:14:26;100.32;;;44.08;;
38455;SDS011;24237;50.106;20.014;2022-11-10T03:16:51;100.22;;;45.65;;
38455;SDS011;24237;50.106;20.014;2022-11-10T03:19:17;110.80;;;48.13;;
38455;SDS011;24237;50.106;20.014;2022-11-10T03:21:43;106.13;;;46.95;;
38455;SDS011;24237;50.106;20.014;2022-11-10T03:24:08;108.13;;;47.92;;
38455;SDS011;24237;50.106;20.014;2022-11-10T03:26:34;109.10;;;46.50;;
38455;SDS011;24237;50.106;20.014;2022-11-10T03:29:00;101.43;;;46.28;;
38455;SDS011;24237;50.106;20.014;2022-11-10T03:31:31;103.97;;;45.65;;
38455;SDS011;24237;50.106;20.014;2022-11-10T03:33:57;97.45;;;43.65;;
38455;SDS011;24237;50.106;20.014;2022-11-10T03:36:22;94.60;;;41.22;;
38455;SDS011;24237;50.106;20.014;2022-11-10T03:38:48;98.70;;;44.42;;
38455;SDS011;24237;50.106;20.014;2022-11-10T03:41:14;96.47;;;41.55;;
38455;SDS011;24237;50.106;20.014;2022-11-10T03:43:39;99.00;;;42.67;;
38455;SDS011;24237;50.106;20.014;2022-11-10T03:46:06;96.80;;;41.40;;
38455;SDS011;24237;50.106;20.014;2022-11-10T03:48:32;93.72;;;42.45;;
38455;SDS011;24237;50.106;20.014;2022-11-10T03:51:01;97.25;;;43.42;;
38455;SDS011;24237;50.106;20.014;2022-11-10T03:53:27;90.63;;;41.88;;
38455;SDS011;24237;50.106;20.014;2022-11-10T03:55:52;103.95;;;44.60;;
38455;SDS011;24237;50.106;20.014;2022-11-10T03:58:18;99.50;;;43.65;;
38455;SDS011;24237;50.106;20.014;2022-11-10T04:00:43;92.05;;;39.40;;
38455;SDS011;24237;50.106;20.014;2022-11-10T04:03:09;89.78;;;39.13;;
38455;SDS011;24237;50.106;20.014;2022-11-10T04:05:38;84.20;;;40.10;;
38455;SDS011;24237;50.106;20.014;2022-11-10T04:08:22;84.85;;;39.20;;
38455;SDS011;24237;50.106;20.014;2022-11-10T04:11:06;84.10;;;38.38;;
38455;SDS011;24237;50.106;20.014;2022-11-10T04:13:31;87.07;;;40.80;;
38455;SDS011;24237;50.106;20.014;2022-11-10T04:16:15;86.63;;;39.95;;
38455;SDS011;24237;50.106;20.014;2022-11-10T04:18:41;85.95;;;39.55;;
38455;SDS011;24237;50.106;20.014;2022-11-10T04:21:07;85.45;;;38.03;;
38455;SDS011;24237;50.106;20.014;2022-11-10T04:23:35;76.93;;;37.70;;
38455;SDS011;24237;50.106;20.014;2022-11-10T04:26:02;74.82;;;37.10;;
38455;SDS011;24237;50.106;20.014;2022-11-10T04:29:01;82.15;;;35.55;;
38455;SDS011;24237;50.106;20.014;2022-11-10T04:31:29;80.43;;;37.20;;
38455;SDS011;24237;50.106;20.014;2022-11-10T04:34:01;86.07;;;37.65;;
38455;SDS011;24237;50.106;20.014;2022-11-10T04:36:30;79.97;;;36.13;;
38455;SDS011;24237;50.106;20.014;2022-11-10T04:38:57;78.30;;;39.45;;
38455;SDS011;24237;50.106;20.014;2022-11-10T04:41:23;84.20;;;37.58;;
38455;SDS011;24237;50.106;20.014;2022-11-10T04:43:49;75.65;;;37.00;;
38455;SDS011;24237;50.106;20.014;2022-11-10T04:46:20;81.78;;;36.90;;
38455;SDS011;24237;50.106;20.014;2022-11-10T04:48:50;72.45;;;33.65;;
38455;SDS011;24237;50.106;20.014;2022-11-10T04:51:17;78.28;;;35.15;;
38455;SDS011;24237;50.106;20.014;2022-11-10T04:53:43;79.90;;;39.70;;
38455;SDS011;24237;50.106;20.014;2022-11-10T04:56:13;81.68;;;37.33;;
38455;SDS011;24237;50.106;20.014;2022-11-10T04:58:40;73.00;;;34.95;;
38455;SDS011;24237;50.106;20.014;2022-11-10T05:01:09;73.55;;;38.45;;
38455;SDS011;24237;50.106;20.014;2022-11-10T05:03:40;78.30;;;35.67;;
38455;SDS011;24237;50.106;20.014;2022-11-10T05:06:06;72.03;;;36.75;;
38455;SDS011;24237;50.106;20.014;2022-11-10T05:08:32;75.40;;;37.20;;
38455;SDS011;24237;50.106;20.014;2022-11-10T05:10:58;76.80;;;34.85;;
38455;SDS011;24237;50.106;20.014;2022-11-10T05:13:23;80.68;;;37.53;;
38455;SDS011;24237;50.106;20.014;2022-11-10T05:15:49;81.30;;;37.38;;
38455;SDS011;24237;50.106;20.014;2022-11-10T05:18:15;78.95;;;36.42;;
38455;SDS011;24237;50.106;20.014;2022-11-10T05:20:41;81.78;;;39.08;;
38455;SDS011;24237;50.106;20.014;2022-11-10T05:23:07;80.13;;;37.97;;
38455;SDS011;24237;50.106;20.014;2022-11-10T05:25:51;83.13;;;37.60;;
38455;SDS011;24237;50.106;20.014;2022-11-10T05:28:16;82.72;;;38.72;;
38455;SDS011;24237;50.106;20.014;2022-11-10T05:30:42;82.15;;;37.05;;
38455;SDS011;24237;50.106;20.014;2022-11-10T05:33:08;79.55;;;38.47;;
38455;SDS011;24237;50.106;20.014;2022-11-10T05:35:34;81.82;;;38.78;;
38455;SDS011;24237;50.106;20.014;2022-11-10T05:38:00;85.35;;;39.28;;
38455;SDS011;24237;50.106;20.014;2022-11-10T05:40:26;83.70;;;38.97;;
38455;SDS011;24237;50.106;20.014;2022-11-10T05:42:52;82.35;;;40.15;;
38455;SDS011;24237;50.106;20.014;2022-11-10T05:45:19;80.97;;;39.10;;
38455;SDS011;24237;50.106;20.014;2022-11-10T05:47:49;79.50;;;37.90;;
38455;SDS011;24237;50.106;20.014;2022-11-10T05:50:16;82.47;;;38.75;;
38455;SDS011;24237;50.106;20.014;2022-11-10T05:52:52;80.65;;;37.33;;
38455;SDS011;24237;50.106;20.014;2022-11-10T05:55:20;76.50;;;37.65;;
38455;SDS011;24237;50.106;20.014;2022-11-10T05:57:49;82.05;;;37.67;;
38455;SDS011;24237;50.106;20.014;2022-11-10T06:00:21;75.60;;;35.73;;
38455;SDS011;24237;50.106;20.014;2022-11-10T06:03:06;81.53;;;35.97;;
38455;SDS011;24237;50.106;20.014;2022-11-10T06:05:38;70.97;;;36.00;;
38455;SDS011;24237;50.106;20.014;2022-11-10T06:08:04;74.50;;;36.28;;
38455;SDS011;24237;50.106;20.014;2022-11-10T06:10:30;78.13;;;37.10;;
38455;SDS011;24237;50.106;20.014;2022-11-10T06:12:57;66.23;;;34.90;;
38455;SDS011;24237;50.106;20.014;2022-11-10T06:15:22;75.40;;;36.75;;
38455;SDS011;24237;50.106;20.014;2022-11-10T06:17:48;72.78;;;35.13;;
38455;SDS011;24237;50.106;20.014;2022-11-10T06:20:14;82.00;;;36.88;;
38455;SDS011;24237;50.106;20.014;2022-11-10T06:22:43;79.82;;;38.25;;
38455;SDS011;24237;50.106;20.014;2022-11-10T06:25:22;76.20;;;35.70;;
38455;SDS011;24237;50.106;20.014;2022-11-10T06:27:48;82.35;;;38.17;;
38455;SDS011;24237;50.106;20.014;2022-11-10T06:30:14;76.47;;;36.72;;
38455;SDS011;24237;50.106;20.014;2022-11-10T06:32:42;82.78;;;37.97;;
38455;SDS011;24237;50.106;20.014;2022-11-10T06:35:09;75.90;;;37.03;;
38455;SDS011;24237;50.106;20.014;2022-11-10T06:37:35;87.32;;;41.08;;
38455;SDS011;24237;50.106;20.014;2022-11-10T06:40:03;77.55;;;37.00;;
38455;SDS011;24237;50.106;20.014;2022-11-10T06:42:33;78.57;;;37.75;;
38455;SDS011;24237;50.106;20.014;2022-11-10T06:44:59;82.90;;;37.25;;
38455;SDS011;24237;50.106;20.014;2022-11-10T06:47:28;91.30;;;37.67;;
38455;SDS011;24237;50.106;20.014;2022-11-10T06:49:54;83.50;;;38.97;;
38455;SDS011;24237;50.106;20.014;2022-11-10T06:52:23;78.53;;;36.47;;
38455;SDS011;24237;50.106;20.014;2022-11-10T06:54:48;75.95;;;35.50;;
38455;SDS011;24237;50.106;20.014;2022-11-10T06:57:14;72.38;;;34.55;;
38455;SDS011;24237;50.106;20.014;2022-11-10T06:59:43;83.88;;;37.58;;
38455;SDS011;24237;50.106;20.014;2022-11-10T07:02:11;78.10;;;35.70;;
38455;SDS011;24237;50.106;20.014;2022-11-10T07:04:40;84.07;;;37.65;;
38455;SDS011;24237;50.106;20.014;2022-11-10T07:07:07;76.50;;;37.33;;
38455;SDS011;24237;50.106;20.014;2022-11-10T07:09:32;88.88;;;38.05;;
38455;SDS011;24237;50.106;20.014;2022-11-10T07:11:58;83.18;;;37.95;;
38455;SDS011;24237;50.106;20.014;2022-11-10T07:14:30;88.63;;;38.78;;
38455;SDS011;24237;50.106;20.014;2022-11-10T07:16:56;85.57;;;37.85;;
38455;SDS011;24237;50.106;20.014;2022-11-10T07:19:21;76.55;;;36.58;;
38455;SDS011;24237;50.106;20.014;2022-11-10T07:21:47;83.32;;;38.08;;
38455;SDS011;24237;50.106;20.014;2022-11-10T07:24:12;77.85;;;37.17;;
38455;SDS011;24237;50.106;20.014;2022-11-10T07:26:38;84.25;;;37.92;;
38455;SDS011;24237;50.106;20.014;2022-11-10T07:29:04;81.45;;;37.88;;
38455;SDS011;24237;50.106;20.014;2022-11-10T07:31:29;83.82;;;38.28;;
38455;SDS011;24237;50.106;20.014;2022-11-10T07:34:13;75.75;;;36.42;;
38455;SDS011;24237;50.106;20.014;2022-11-10T07:37:05;82.57;;;37.35;;
38455;SDS011;24237;50.106;20.014;2022-11-10T07:39:30;83.68;;;38.97;;
38455;SDS011;24237;50.106;20.014;2022-11-10T07:41:56;83.43;;;37.58;;
38455;SDS011;24237;50.106;20.014;2022-11-10T07:44:22;81.85;;;38.90;;
38455;SDS011;24237;50.106;20.014;2022-11-10T07:46:48;80.65;;;37.22;;
38455;SDS011;24237;50.106;20.014;2022-11-10T07:49:13;85.03;;;38.92;;
38455;SDS011;24237;50.106;20.014;2022-11-10T07:51:41;85.22;;;38.35;;
38455;SDS011;24237;50.106;20.014;2022-11-10T07:54:07;76.13;;;36.55;;
38455;SDS011;24237;50.106;20.014;2022-11-10T07:56:32;95.53;;;42.25;;
38455;SDS011;24237;50.106;20.014;2022-11-10T07:58:58;84.82;;;37.08;;
38455;SDS011;24237;50.106;20.014;2022-11-10T08:01:24;87.53;;;37.92;;
38455;SDS011;24237;50.106;20.014;2022-11-10T08:03:49;88.68;;;38.92;;
38455;SDS011;24237;50.106;20.014;2022-11-10T08:06:18;92.68;;;39.90;;
38455;SDS011;24237;50.106;20.014;2022-11-10T08:08:46;88.13;;;39.58;;
38455;SDS011;24237;50.106;20.014;2022-11-10T08:11:12;91.43;;;38.92;;
38455;SDS011;24237;50.106;20.014;2022-11-10T08:13:37;96.95;;;40.03;;
38455;SDS011;24237;50.106;20.014;2022-11-10T08:16:04;92.63;;;39.03;;
38455;SDS011;24237;50.106;20.014;2022-11-10T08:18:29;91.82;;;39.40;;
38455;SDS011;24237;50.106;20.014;2022-11-10T08:20:55;91.97;;;41.15;;
38455;SDS011;24237;50.106;20.014;2022-11-10T08:23:21;96.07;;;40.40;;
38455;SDS011;24237;50.106;20.014;2022-11-10T08:25:47;97.50;;;40.20;;
38455;SDS011;24237;50.106;20.014;2022-11-10T08:28:17;96.55;;;41.13;;
38455;SDS011;24237;50.106;20.014;2022-11-10T08:30:46;92.13;;;39.95;;
38455;SDS011;24237;50.106;20.014;2022-11-10T08:33:29;97.13;;;38.88;;
38455;SDS011;24237;50.106;20.014;2022-11-10T08:35:54;92.32;;;39.30;;
38455;SDS011;24237;50.106;20.014;2022-11-10T08:38:20;94.13;;;42.40;;
38455;SDS011;24237;50.106;20.014;2022-11-10T08:40:50;95.43;;;41.95;;
38455;SDS011;24237;50.106;20.014;2022-11-10T08:43:16;89.82;;;38.20;;
38455;SDS011;24237;50.106;20.014;2022-11-10T08:45:42;99.63;;;40.53;;
38455;SDS011;24237;50.106;20.014;2022-11-10T08:48:09;95.53;;;40.63;;
38455;SDS011;24237;50.106;20.014;2022-11-10T08:50:41;102.43;;;42.13;;
38455;SDS011;24237;50.106;20.014;2022-11-10T08:53:33;94.57;;;39.05;;
38455;SDS011;24237;50.106;20.014;2022-11-10T08:56:06;95.40;;;39.90;;
38455;SDS011;24237;50.106;20.014;2022-11-10T08:58:35;88.68;;;36.67;;
38455;SDS011;24237;50.106;20.014;2022-11-10T09:01:06;93.82;;;38.15;;
38455;SDS011;24237;50.106;20.014;2022-11-10T09:03:32;96.15;;;40.50;;
38455;SDS011;24237;50.106;20.014;2022-11-10T09:09:30;95.95;;;40.13;;
38455;SDS011;24237;50.106;20.014;2022-11-10T09:12:01;93.28;;;38.28;;
38455;SDS011;24237;50.106;20.014;2022-11-10T09:14:27;87.93;;;36.75;;
38455;SDS011;24237;50.106;20.014;2022-11-10T09:16:55;90.72;;;37.63;;
38455;SDS011;24237;50.106;20.014;2022-11-10T09:19:20;86.28;;;37.75;;
38455;SDS011;24237;50.106;20.014;2022-11-10T09:25:07;87.20;;;35.92;;
38455;SDS011;24237;50.106;20.014;2022-11-10T09:27:36;83.82;;;37.03;;
38455;SDS011;24237;50.106;20.014;2022-11-10T09:30:06;82.75;;;35.55;;
38455;SDS011;24237;50.106;20.014;2022-11-10T09:32:32;87.80;;;37.47;;
38455;SDS011;24237;50.106;20.014;2022-11-10T09:34:59;84.50;;;37.38;;
38455;SDS011;24237;50.106;20.014;2022-11-10T09:37:27;82.20;;;36.83;;
38455;SDS011;24237;50.106;20.014;2022-11-10T09:39:53;79.35;;;35.50;;
38455;SDS011;24237;50.106;20.014;2022-11-10T09:42:23;88.00;;;37.67;;
38455;SDS011;24237;50.106;20.014;2022-11-10T09:44:59;72.35;;;34.78;;
38455;SDS011;24237;50.106;20.014;2022-11-10T09:47:48;77.43;;;35.60;;
38455;SDS011;24237;50.106;20.014;2022-11-10T09:50:36;77.95;;;36.35;;
38455;SDS011;24237;50.106;20.014;2022-11-10T09:56:02;88.72;;;37.47;;
38455;SDS011;24237;50.106;20.014;2022-11-10T09:58:32;83.88;;;35.70;;
38455;SDS011;24237;50.106;20.014;2022-11-10T10:03:47;89.57;;;36.15;;
38455;SDS011;24237;50.106;20.014;2022-11-10T10:06:23;87.25;;;37.28;;
38455;SDS011;24237;50.106;20.014;2022-11-10T10:11:51;90.72;;;37.00;;
38455;SDS011;24237;50.106;20.014;2022-11-10T10:19:59;77.75;;;35.55;;
38455;SDS011;24237;50.106;20.014;2022-11-10T10:25:24;86.40;;;35.97;;
38455;SDS011;24237;50.106;20.014;2022-11-10T10:27:57;82.57;;;37.03;;
38455;SDS011;24237;50.106;20.014;2022-11-10T10:30:30;87.07;;;37.55;;
38455;SDS011;24237;50.106;20.014;2022-11-10T10:32:56;94.88;;;38.55;;
38455;SDS011;24237;50.106;20.014;2022-11-10T10:35:39;85.07;;;36.13;;
38455;SDS011;24237;50.106;20.014;2022-11-10T10:38:09;80.72;;;35.95;;
38455;SDS011;24237;50.106;20.014;2022-11-10T10:43:24;85.07;;;36.05;;
38455;SDS011;24237;50.106;20.014;2022-11-10T10:51:49;83.68;;;36.25;;
38455;SDS011;24237;50.106;20.014;2022-11-10T10:54:26;84.15;;;34.47;;
38455;SDS011;24237;50.106;20.014;2022-11-10T10:57:04;76.07;;;33.70;;
38455;SDS011;24237;50.106;20.014;2022-11-10T10:59:55;68.90;;;31.35;;
38455;SDS011;24237;50.106;20.014;2022-11-10T11:02:42;70.32;;;33.83;;
38455;SDS011;24237;50.106;20.014;2022-11-10T11:07:52;83.90;;;34.47;;
38455;SDS011;24237;50.106;20.014;2022-11-10T11:10:20;69.60;;;31.80;;
38455;SDS011;24237;50.106;20.014;2022-11-10T11:12:54;78.10;;;33.97;;
38455;SDS011;24237;50.106;20.014;2022-11-10T11:15:36;72.32;;;30.38;;
38455;SDS011;24237;50.106;20.014;2022-11-10T11:18:02;70.95;;;30.30;;
38455;SDS011;24237;50.106;20.014;2022-11-10T11:23:23;62.83;;;29.00;;
38455;SDS011;24237;50.106;20.014;2022-11-10T11:26:05;70.43;;;30.48;;
38455;SDS011;24237;50.106;20.014;2022-11-10T11:28:42;71.00;;;29.80;;
38455;SDS011;24237;50.106;20.014;2022-11-10T11:41:48;68.82;;;29.33;;
38455;SDS011;24237;50.106;20.014;2022-11-10T11:52:54;65.10;;;28.88;;
38455;SDS011;24237;50.106;20.014;2022-11-10T12:01:11;67.65;;;28.52;;
38455;SDS011;24237;50.106;20.014;2022-11-10T12:03:54;60.05;;;28.52;;
38455;SDS011;24237;50.106;20.014;2022-11-10T12:06:26;69.18;;;30.98;;
38455;SDS011;24237;50.106;20.014;2022-11-10T12:11:50;65.32;;;28.80;;
38455;SDS011;24237;50.106;20.014;2022-11-10T12:17:26;68.28;;;28.55;;
38455;SDS011;24237;50.106;20.014;2022-11-10T12:22:37;68.10;;;30.05;;
38455;SDS011;24237;50.106;20.014;2022-11-10T12:27:55;69.72;;;30.70;;
38455;SDS011;24237;50.106;20.014;2022-11-10T12:30:44;72.85;;;31.05;;
38455;SDS011;24237;50.106;20.014;2022-11-10T12:36:23;77.57;;;32.67;;
38455;SDS011;24237;50.106;20.014;2022-11-10T12:38:56;66.65;;;29.58;;
38455;SDS011;24237;50.106;20.014;2022-11-10T12:41:32;70.68;;;31.63;;
38455;SDS011;24237;50.106;20.014;2022-11-10T12:46:53;75.38;;;30.50;;
38455;SDS011;24237;50.106;20.014;2022-11-10T12:49:24;67.18;;;31.52;;
38455;SDS011;24237;50.106;20.014;2022-11-10T12:52:02;77.43;;;33.25;;
38455;SDS011;24237;50.106;20.014;2022-11-10T12:54:36;61.38;;;29.50;;
38455;SDS011;24237;50.106;20.014;2022-11-10T12:57:09;66.07;;;30.38;;
38455;SDS011;24237;50.106;20.014;2022-11-10T12:59:59;63.75;;;30.00;;
38455;SDS011;24237;50.106;20.014;2022-11-10T13:02:31;66.93;;;30.15;;
38455;SDS011;24237;50.106;20.014;2022-11-10T13:05:08;69.40;;;30.98;;
38455;SDS011;24237;50.106;20.014;2022-11-10T13:07:40;71.05;;;31.90;;
38455;SDS011;24237;50.106;20.014;2022-11-10T13:10:20;66.97;;;31.40;;
38455;SDS011;24237;50.106;20.014;2022-11-10T13:12:57;66.05;;;30.70;;
38455;SDS011;24237;50.106;20.014;2022-11-10T13:31:56;68.80;;;31.05;;
38455;SDS011;24237;50.106;20.014;2022-11-10T13:41:33;65.30;;;31.13;;
38455;SDS011;24237;50.106;20.014;2022-11-10T13:44:25;69.65;;;31.23;;
38455;SDS011;24237;50.106;20.014;2022-11-10T13:52:43;64.50;;;29.98;;
38455;SDS011;24237;50.106;20.014;2022-11-10T13:58:44;67.00;;;30.00;;
38455;SDS011;24237;50.106;20.014;2022-11-10T14:01:25;70.18;;;31.60;;
38455;SDS011;24237;50.106;20.014;2022-11-10T14:07:43;69.45;;;31.15;;
38455;SDS011;24237;50.106;20.014;2022-11-10T14:11:04;67.43;;;30.30;;
38455;SDS011;24237;50.106;20.014;2022-11-10T14:20:28;73.93;;;31.55;;
38455;SDS011;24237;50.106;20.014;2022-11-10T14:23:18;65.80;;;29.30;;
38455;SDS011;24237;50.106;20.014;2022-11-10T14:29:33;74.10;;;31.63;;
38455;SDS011;24237;50.106;20.014;2022-11-10T14:32:03;71.10;;;32.50;;
38455;SDS011;24237;50.106;20.014;2022-11-10T14:34:46;84.53;;;33.05;;
38455;SDS011;24237;50.106;20.014;2022-11-10T14:37:20;69.38;;;31.55;;
38455;SDS011;24237;50.106;20.014;2022-11-10T14:39:56;72.63;;;31.60;;
38455;SDS011;24237;50.106;20.014;2022-11-10T14:42:27;71.72;;;31.75;;
38455;SDS011;24237;50.106;20.014;2022-11-10T14:50:26;84.90;;;34.03;;
38455;SDS011;24237;50.106;20.014;2022-11-10T14:56:03;91.13;;;35.90;;
38455;SDS011;24237;50.106;20.014;2022-11-10T14:59:04;77.82;;;33.72;;
38455;SDS011;24237;50.106;20.014;2022-11-10T15:01:37;75.13;;;31.23;;
38455;SDS011;24237;50.106;20.014;2022-11-10T15:04:11;76.65;;;33.90;;
38455;SDS011;24237;50.106;20.014;2022-11-10T15:09:39;78.00;;;32.53;;
38455;SDS011;24237;50.106;20.014;2022-11-10T15:19:53;71.28;;;29.60;;
38455;SDS011;24237;50.106;20.014;2022-11-10T15:22:35;77.57;;;31.90;;
38455;SDS011;24237;50.106;20.014;2022-11-10T15:28:31;68.10;;;30.00;;
38455;SDS011;24237;50.106;20.014;2022-11-10T15:31:02;69.63;;;30.48;;
38455;SDS011;24237;50.106;20.014;2022-11-10T15:33:44;75.53;;;32.33;;
38455;SDS011;24237;50.106;20.014;2022-11-10T15:36:16;62.67;;;29.00;;
38455;SDS011;24237;50.106;20.014;2022-11-10T15:42:21;70.85;;;31.10;;
38455;SDS011;24237;50.106;20.014;2022-11-10T15:44:48;71.05;;;33.42;;
38455;SDS011;24237;50.106;20.014;2022-11-10T15:47:14;60.55;;;29.73;;
38455;SDS011;24237;50.106;20.014;2022-11-10T15:49:43;59.70;;;28.45;;
38455;SDS011;24237;50.106;20.014;2022-11-10T15:52:13;66.72;;;30.65;;
38455;SDS011;24237;50.106;20.014;2022-11-10T15:54:44;67.60;;;30.55;;
38455;SDS011;24237;50.106;20.014;2022-11-10T15:57:11;71.50;;;30.98;;
38455;SDS011;24237;50.106;20.014;2022-11-10T15:59:40;65.45;;;30.23;;
38455;SDS011;24237;50.106;20.014;2022-11-10T16:02:10;69.80;;;30.85;;
38455;SDS011;24237;50.106;20.014;2022-11-10T16:04:42;64.95;;;30.05;;
38455;SDS011;24237;50.106;20.014;2022-11-10T16:07:08;68.68;;;31.27;;
38455;SDS011;24237;50.106;20.014;2022-11-10T16:09:33;66.38;;;30.25;;
38455;SDS011;24237;50.106;20.014;2022-11-10T16:11:59;66.90;;;29.38;;
38455;SDS011;24237;50.106;20.014;2022-11-10T16:14:25;70.95;;;31.13;;
38455;SDS011;24237;50.106;20.014;2022-11-10T16:16:51;65.30;;;29.92;;
38455;SDS011;24237;50.106;20.014;2022-11-10T16:19:16;67.07;;;29.15;;
38455;SDS011;24237;50.106;20.014;2022-11-10T16:21:42;68.30;;;29.20;;
38455;SDS011;24237;50.106;20.014;2022-11-10T16:30:39;69.57;;;32.40;;
38455;SDS011;24237;50.106;20.014;2022-11-10T16:33:16;70.60;;;30.52;;
38455;SDS011;24237;50.106;20.014;2022-11-10T16:35:58;66.07;;;31.50;;
38455;SDS011;24237;50.106;20.014;2022-11-10T16:41:25;71.07;;;30.98;;
38455;SDS011;24237;50.106;20.014;2022-11-10T16:44:09;70.32;;;31.05;;
38455;SDS011;24237;50.106;20.014;2022-11-10T16:46:50;73.20;;;30.95;;
38455;SDS011;24237;50.106;20.014;2022-11-10T16:52:40;67.95;;;30.33;;
38455;SDS011;24237;50.106;20.014;2022-11-10T16:55:14;67.68;;;29.95;;
38455;SDS011;24237;50.106;20.014;2022-11-10T17:01:16;68.38;;;31.30;;
38455;SDS011;24237;50.106;20.014;2022-11-10T17:06:20;76.00;;;29.85;;
38455;SDS011;24237;50.106;20.014;2022-11-10T17:16:02;73.07;;;31.55;;
38455;SDS011;24237;50.106;20.014;2022-11-10T17:21:32;70.53;;;30.95;;
38455;SDS011;24237;50.106;20.014;2022-11-10T17:23:59;72.65;;;31.08;;
38455;SDS011;24237;50.106;20.014;2022-11-10T17:26:25;68.88;;;32.42;;
38455;SDS011;24237;50.106;20.014;2022-11-10T17:28:52;70.53;;;30.92;;